Time;durP1;ratioP1;P1;durP2;ratioP2;P2;SDS_P1;SDS_P2;PMS_P1;PMS_P2;Temp;Humidity;BMP_temperature;BMP_pressure;BME280_temperature;BME280_humidity;BME280_pressure;Samples;Min_cycle;Max_cycle;Signal;HPM_P1;HPM_P2
2022/12/13 00:01:53;;;;;;;19.95;12.00;;;;;;;1.03;97.03;100380.06;4875898;29;20061;-73
2022/12/13 00:04:24;;;;;;;21.40;11.90;;;;;;;1.04;97.04;100384.41;4879455;29;20053;-73
2022/12/13 00:06:55;;;;;;;22.85;12.50;;;;;;;1.10;97.71;100384.56;4878802;29;20060;-73
2022/12/13 00:09:23;;;;;;;21.45;11.93;;;;;;;1.10;97.57;100379.19;4862825;29;20052;-73
2022/12/13 00:11:51;;;;;;;20.08;12.10;;;;;;;1.17;97.35;100382.66;4867134;29;20049;-73
2022/12/13 00:14:19;;;;;;;21.63;12.13;;;;;;;1.15;97.75;100379.34;4867467;29;20049;-73
2022/12/13 00:16:48;;;;;;;18.80;11.60;;;;;;;1.26;97.61;100372.41;4862978;29;20046;-73
2022/12/13 00:19:17;;;;;;;24.00;12.38;;;;;;;1.17;97.13;100379.97;4862777;29;20061;-73
2022/12/13 00:21:45;;;;;;;19.33;11.35;;;;;;;1.24;96.74;100387.97;4862083;29;20062;-73
2022/12/13 00:24:13;;;;;;;23.05;12.65;;;;;;;1.26;97.90;100384.00;4873234;29;20049;-73
2022/12/13 00:26:41;;;;;;;22.38;12.25;;;;;;;1.11;97.11;100384.34;4880018;29;20060;-73
2022/12/13 00:29:10;;;;;;;19.63;10.50;;;;;;;1.24;96.80;100396.06;4878539;29;20045;-73
2022/12/13 00:31:38;;;;;;;19.75;12.02;;;;;;;1.26;96.67;100391.28;4867643;29;20392;-73
2022/12/13 00:34:27;;;;;;;18.83;11.90;;;;;;;1.36;96.73;100396.16;4866215;29;20045;-73
2022/12/13 00:36:57;;;;;;;21.67;12.65;;;;;;;1.42;94.93;100397.97;4861262;29;20498;-73
2022/12/13 00:39:26;;;;;;;19.08;11.82;;;;;;;1.48;94.38;100386.28;4861279;29;20425;-73
2022/12/13 00:41:54;;;;;;;20.33;11.88;;;;;;;1.40;95.40;100381.16;4870395;29;20049;-73
2022/12/13 00:44:22;;;;;;;22.25;12.77;;;;;;;1.42;94.92;100376.41;4879736;29;20052;-73
2022/12/13 00:46:50;;;;;;;23.80;11.68;;;;;;;1.44;94.53;100367.03;4893873;29;20061;-73
2022/12/13 00:49:18;;;;;;;22.13;12.68;;;;;;;1.48;92.96;100364.72;4877766;29;20048;-73
2022/12/13 00:51:48;;;;;;;24.95;12.93;;;;;;;1.45;93.50;100360.59;4882438;29;20060;-73
2022/12/13 00:54:16;;;;;;;19.35;10.80;;;;;;;1.50;94.88;100370.69;4893860;29;20060;-73
2022/12/13 00:56:44;;;;;;;23.23;12.30;;;;;;;1.49;94.34;100360.97;4890733;29;20758;-73
2022/12/13 00:59:14;;;;;;;22.52;12.25;;;;;;;1.74;94.64;100357.34;4860864;29;20124;-74
2022/12/13 01:01:42;;;;;;;22.85;11.85;;;;;;;1.66;94.20;100360.38;4862349;29;20045;-73
2022/12/13 01:04:10;;;;;;;22.50;12.23;;;;;;;1.69;93.77;100365.28;4860769;29;20045;-74
2022/12/13 01:06:45;;;;;;;19.92;11.10;;;;;;;1.59;93.96;100372.06;4860726;29;20042;-73
2022/12/13 01:09:19;;;;;;;23.08;11.43;;;;;;;1.43;95.11;100372.66;4877247;29;20045;-73
2022/12/13 01:11:49;;;;;;;23.60;11.82;;;;;;;1.29;95.81;100369.25;4890603;29;20052;-73
2022/12/13 01:14:17;;;;;;;20.85;12.18;;;;;;;1.41;95.21;100370.16;4860679;29;20057;-74
2022/12/13 01:16:45;;;;;;;16.80;10.27;;;;;;;1.39;95.98;100371.44;4860444;29;20055;-73
2022/12/13 01:19:14;;;;;;;22.10;11.55;;;;;;;1.59;95.16;100374.75;4872010;29;20049;-73
2022/12/13 01:21:41;;;;;;;20.52;11.68;;;;;;;1.68;94.83;100374.44;4873597;29;20053;-73
2022/12/13 01:24:10;;;;;;;24.77;11.95;;;;;;;1.61;95.25;100369.94;4860508;29;20057;-73
2022/12/13 01:26:37;;;;;;;20.02;11.10;;;;;;;1.57;94.12;100378.72;4875949;29;20045;-73
2022/12/13 01:29:05;;;;;;;20.55;11.57;;;;;;;1.46;95.87;100372.19;4879010;29;20131;-73
2022/12/13 01:31:33;;;;;;;18.65;11.13;;;;;;;1.55;94.75;100372.72;4865486;29;20059;-73
2022/12/13 01:34:09;;;;;;;23.58;11.80;;;;;;;1.54;94.51;100353.03;4878837;29;20594;-73
2022/12/13 01:36:42;;;;;;;18.92;11.00;;;;;;;1.60;94.03;100338.63;4892713;29;20053;-73
2022/12/13 01:39:12;;;;;;;17.70;10.95;;;;;;;1.35;95.24;100336.00;4876935;29;20060;-73
2022/12/13 01:41:47;;;;;;;24.38;12.82;;;;;;;1.30;95.52;100319.69;4869507;29;20408;-73
2022/12/13 01:44:52;;;;;;;17.98;10.60;;;;;;;1.45;94.26;100317.44;4878818;29;20049;-73
2022/12/13 01:47:47;;;;;;;19.27;11.65;;;;;;;1.51;92.99;100314.88;4878791;29;20056;-73
2022/12/13 01:50:31;;;;;;;20.40;11.88;;;;;;;1.65;92.20;100315.56;4871005;29;20053;-73
2022/12/13 01:53:00;;;;;;;20.25;11.15;;;;;;;1.60;90.18;100314.34;4864209;29;20132;-73
2022/12/13 01:55:32;;;;;;;22.90;11.57;;;;;;;1.66;90.45;100314.50;4860024;29;20053;-74
2022/12/13 01:58:11;;;;;;;18.25;11.05;;;;;;;1.56;90.62;100301.56;4868493;29;20053;-74
2022/12/13 02:00:39;;;;;;;20.90;10.95;;;;;;;1.60;90.10;100300.03;4878511;29;20485;-74
2022/12/13 02:03:08;;;;;;;18.73;10.93;;;;;;;1.65;90.46;100302.06;4864000;29;20611;-74
2022/12/13 02:06:12;;;;;;;16.17;9.93;;;;;;;1.76;92.42;100303.97;4859880;29;20060;-73
2022/12/13 02:08:41;;;;;;;17.45;11.05;;;;;;;1.74;92.63;100300.69;4860504;29;20041;-73
2022/12/13 02:11:10;;;;;;;18.63;10.85;;;;;;;1.73;92.51;100302.59;4859956;29;20056;-73
2022/12/13 02:13:38;;;;;;;16.33;10.55;;;;;;;1.85;92.18;100316.09;4862523;29;20045;-73
2022/12/13 02:16:27;;;;;;;15.05;8.98;;;;;;;1.72;89.23;100310.91;4878368;29;20053;-74
2022/12/13 02:19:15;;;;;;;19.83;10.57;;;;;;;1.81;91.13;100311.41;4875546;29;20069;-74
2022/12/13 02:22:01;;;;;;;19.45;11.27;;;;;;;1.87;90.71;100297.00;4839710;29;20065;-73
2022/12/13 02:24:57;;;;;;;17.25;10.02;;;;;;;2.00;90.32;100301.38;4858528;29;20458;-74
2022/12/13 02:27:53;;;;;;;19.15;9.48;;;;;;;1.84;89.77;100303.66;4862656;29;20045;-74
2022/12/13 02:30:43;;;;;;;17.80;9.60;;;;;;;1.93;88.97;100295.25;4860856;29;20053;-73
2022/12/13 02:33:33;;;;;;;16.27;10.57;;;;;;;1.92;90.33;100293.59;4875351;29;20056;-74
2022/12/13 02:36:23;;;;;;;16.42;9.95;;;;;;;1.83;91.31;100283.16;4881965;29;20069;-74
2022/12/13 02:38:57;;;;;;;17.30;9.95;;;;;;;1.91;91.67;100291.97;4881694;29;20400;-73
2022/12/13 02:41:35;;;;;;;;;;;;;;;1.99;90.13;100295.16;4881853;29;20060;-73
2022/12/13 02:44:11;;;;;;;15.13;8.95;;;;;;;1.94;87.75;100280.69;4863262;29;19931;-74
2022/12/13 02:46:54;;;;;;;16.80;9.35;;;;;;;2.02;89.57;100291.19;4863272;29;20053;-73
2022/12/13 02:49:27;;;;;;;15.98;9.57;;;;;;;2.01;89.64;100294.94;4895834;29;20041;-74
2022/12/13 02:51:56;;;;;;;15.30;9.45;;;;;;;2.03;90.81;100295.53;4878458;29;20056;-73
2022/12/13 02:54:24;;;;;;;21.20;10.70;;;;;;;2.07;91.32;100293.19;4862957;29;20057;-73
2022/12/13 02:56:57;;;;;;;17.98;10.23;;;;;;;2.09;91.42;100283.81;4862929;29;20056;-74
2022/12/13 02:59:33;;;;;;;14.70;9.27;;;;;;;2.01;90.75;100273.34;4863062;29;20053;-73
2022/12/13 03:02:14;;;;;;;19.55;9.88;;;;;;;1.97;90.41;100281.09;4866544;29;20045;-74
2022/12/13 03:08:35;;;;;;;19.92;10.38;;;;;;;1.99;92.10;100280.81;4872605;29;20064;-74
2022/12/13 03:11:08;;;;;;;16.08;9.75;;;;;;;2.09;91.35;100278.41;4827801;29;20053;-73
2022/12/13 03:13:58;;;;;;;16.63;10.60;;;;;;;1.91;92.53;100281.16;4862838;29;20053;-74
2022/12/13 03:16:32;;;;;;;17.65;9.43;;;;;;;1.96;91.61;100278.59;4862641;29;20046;-74
2022/12/13 03:19:01;;;;;;;;;;;;;;;2.02;90.54;100283.09;4877696;29;20049;-74
2022/12/13 03:21:40;;;;;;;15.35;8.40;;;;;;;2.07;90.76;100279.69;4881291;29;19928;-74
2022/12/13 03:24:19;;;;;;;15.35;8.32;;;;;;;2.10;90.86;100280.03;4879435;29;20053;-73
2022/12/13 03:26:49;;;;;;;15.23;8.93;;;;;;;2.04;90.09;100278.28;4877017;29;20527;-73
2022/12/13 03:29:18;;;;;;;17.02;8.95;;;;;;;2.12;89.18;100269.03;4862465;29;20053;-74
2022/12/13 03:31:52;;;;;;;19.67;9.47;;;;;;;2.02;88.44;100266.88;4862533;29;20493;-74
2022/12/13 03:34:20;;;;;;;16.60;8.52;;;;;;;2.02;88.94;100266.88;4879312;29;20053;-74
2022/12/13 03:36:51;;;;;;;15.95;9.30;;;;;;;2.16;87.55;100272.91;4894593;29;20052;-74
2022/12/13 03:39:19;;;;;;;13.48;8.70;;;;;;;2.24;87.78;100271.72;4865860;29;20060;-74
2022/12/13 03:41:48;;;;;;;13.98;8.80;;;;;;;2.19;88.50;100271.63;4862257;29;20062;-74
2022/12/13 03:44:16;;;;;;;15.10;8.27;;;;;;;2.18;88.13;100276.19;4882835;29;20065;-74
2022/12/13 03:46:44;;;;;;;13.25;8.43;;;;;;;2.17;88.76;100273.72;4862193;29;20056;-74
2022/12/13 03:49:12;;;;;;;15.45;8.82;;;;;;;2.10;88.59;100269.25;4874428;29;20408;-73
2022/12/13 03:51:44;;;;;;;13.85;8.15;;;;;;;2.11;89.42;100275.47;4880634;29;20045;-74
2022/12/13 03:54:12;;;;;;;21.88;10.07;;;;;;;1.96;89.84;100263.22;4878525;29;20049;-74
2022/12/13 03:56:40;;;;;;;21.15;10.07;;;;;;;2.04;89.26;100251.28;4861841;29;20046;-74
2022/12/13 03:59:08;;;;;;;22.25;10.68;;;;;;;2.12;88.63;100256.38;4862022;29;20485;-73
2022/12/13 04:01:36;;;;;;;19.13;9.63;;;;;;;2.11;89.05;100262.78;4893517;29;20045;-73
2022/12/13 04:04:03;;;;;;;17.60;8.55;;;;;;;2.09;87.98;100264.91;4865434;29;20050;-74
2022/12/13 04:06:31;;;;;;;24.25;10.30;;;;;;;2.13;86.48;100249.06;4873582;29;20796;-74
2022/12/13 04:09:00;;;;;;;19.60;8.98;;;;;;;2.08;88.08;100257.88;4894217;29;20511;-74
2022/12/13 04:14:14;;;;;;;16.90;8.38;;;;;;;2.07;88.36;100258.94;4878484;29;20060;-74
2022/12/13 04:16:51;;;;;;;15.20;8.25;;;;;;;2.17;87.61;100255.66;4879922;29;20052;-73
2022/12/13 04:19:19;;;;;;;14.15;7.80;;;;;;;2.15;88.29;100246.94;4879925;29;20065;-74
2022/12/13 04:21:53;;;;;;;14.75;7.63;;;;;;;2.13;85.08;100252.59;4869989;29;20050;-74
2022/12/13 04:24:24;;;;;;;15.77;7.53;;;;;;;2.21;84.60;100247.91;4876249;29;20108;-74
2022/12/13 04:27:01;;;;;;;11.52;6.90;;;;;;;2.24;85.35;100248.25;4879166;29;20057;-74
2022/12/13 04:29:29;;;;;;;16.35;8.35;;;;;;;2.22;85.30;100242.28;4861352;29;20068;-73
2022/12/13 04:32:04;;;;;;;13.13;8.30;;;;;;;2.20;86.55;100257.06;4861409;29;20049;-73
2022/12/13 04:34:53;;;;;;;14.90;8.48;;;;;;;2.16;87.36;100256.72;4877436;29;20048;-74
2022/12/13 04:37:39;;;;;;;15.55;8.45;;;;;;;2.11;87.75;100257.38;4879719;29;20049;-73
2022/12/13 04:40:10;;;;;;;14.88;8.45;;;;;;;2.17;87.26;100266.47;4861755;29;20045;-74
2022/12/13 04:42:38;;;;;;;13.80;7.53;;;;;;;2.11;86.91;100259.28;4870142;29;20071;-74
2022/12/13 04:45:07;;;;;;;14.77;7.43;;;;;;;2.10;87.33;100257.66;4879716;29;20056;-74
2022/12/13 04:47:35;;;;;;;12.55;7.90;;;;;;;2.19;87.56;100271.63;4877981;29;20485;-74
2022/12/13 04:50:03;;;;;;;15.45;8.10;;;;;;;2.18;88.11;100270.78;4868688;29;20056;-74
2022/12/13 04:52:31;;;;;;;15.20;8.63;;;;;;;2.19;88.73;100277.03;4861085;29;20060;-74
2022/12/13 04:54:59;;;;;;;16.75;8.48;;;;;;;2.21;88.57;100269.50;4879041;29;20056;-74
2022/12/13 04:57:27;;;;;;;15.27;8.48;;;;;;;2.24;88.52;100263.63;4893349;29;20052;-74
2022/12/13 04:59:55;;;;;;;14.18;7.70;;;;;;;2.35;88.38;100264.72;4872590;29;20488;-74
2022/12/13 05:02:23;;;;;;;13.60;7.25;;;;;;;2.44;89.24;100270.63;4860836;29;20054;-74
2022/12/13 05:04:51;;;;;;;14.32;8.07;;;;;;;2.44;89.17;100259.81;4878490;29;20045;-74
2022/12/13 05:07:22;;;;;;;12.57;8.18;;;;;;;2.40;88.93;100257.56;4879398;29;20507;-74
2022/12/13 05:09:50;;;;;;;17.80;9.13;;;;;;;2.48;90.55;100266.38;4879295;29;20057;-74
2022/12/13 05:12:18;;;;;;;18.27;8.23;;;;;;;2.41;89.89;100264.59;4878963;29;20056;-74
2022/12/13 05:14:50;;;;;;;14.73;8.60;;;;;;;2.46;90.70;100272.03;4874515;29;20058;-74
2022/12/13 05:17:19;;;;;;;12.02;7.50;;;;;;;2.40;91.03;100262.16;4863734;29;20056;-74
2022/12/13 05:19:47;;;;;;;18.60;8.55;;;;;;;2.36;91.40;100261.81;4879118;29;20048;-74
2022/12/13 05:22:15;;;;;;;13.27;7.75;;;;;;;2.33;91.54;100262.25;4878553;29;20056;-74
2022/12/13 05:24:47;;;;;;;13.20;7.65;;;;;;;2.20;91.88;100259.78;4877364;29;20520;-74
2022/12/13 05:27:16;;;;;;;14.25;7.10;;;;;;;2.38;91.37;100264.25;4877479;29;20056;-73
2022/12/13 05:29:54;;;;;;;16.17;8.48;;;;;;;2.43;91.10;100275.19;4874571;29;20046;-74
2022/12/13 05:32:37;;;;;;;14.73;7.90;;;;;;;2.47;90.53;100272.84;4860294;29;20401;-74
2022/12/13 05:35:13;;;;;;;19.73;10.05;;;;;;;2.48;90.54;100275.31;4873756;29;20061;-73
2022/12/13 05:37:53;;;;;;;16.63;10.15;;;;;;;2.53;90.03;100271.91;4873222;29;20052;-74
2022/12/13 05:40:23;;;;;;;19.88;10.00;;;;;;;2.48;90.57;100264.50;4860285;29;20052;-74
2022/12/13 05:42:51;;;;;;;13.60;8.55;;;;;;;2.54;89.69;100268.16;4874247;29;20049;-74
2022/12/13 05:45:29;;;;;;;12.60;8.00;;;;;;;2.51;89.63;100271.31;4875878;29;20053;-74
2022/12/13 05:47:58;;;;;;;13.48;7.82;;;;;;;2.37;90.47;100276.94;4878717;29;20396;-74
2022/12/13 05:50:25;;;;;;;13.05;7.63;;;;;;;2.51;90.17;100274.84;4867187;29;20052;-73
2022/12/13 05:52:53;;;;;;;11.27;7.47;;;;;;;2.50;90.03;100280.47;4873422;29;20060;-74
2022/12/13 05:55:21;;;;;;;11.55;7.43;;;;;;;2.54;88.67;100268.16;4875258;29;20045;-74
2022/12/13 05:57:49;;;;;;;11.73;7.38;;;;;;;2.55;87.58;100267.09;4878381;29;20053;-73
2022/12/13 06:00:18;;;;;;;19.70;7.60;;;;;;;2.68;88.07;100264.16;4878553;29;20054;-74
2022/12/13 06:02:59;;;;;;;13.82;7.55;;;;;;;2.60;87.16;100266.38;4875673;29;20057;-74
2022/12/13 06:05:29;;;;;;;9.65;6.30;;;;;;;2.68;85.92;100269.56;4872848;29;20049;-74
2022/12/13 06:07:57;;;;;;;10.15;6.30;;;;;;;2.68;85.09;100261.47;4860607;29;20049;-74
2022/12/13 06:10:27;;;;;;;15.07;7.40;;;;;;;2.64;86.05;100257.56;4872730;29;20056;-74
2022/12/13 06:13:03;;;;;;;13.00;7.28;;;;;;;2.65;85.70;100269.22;4865096;29;20061;-73
2022/12/13 06:15:52;;;;;;;8.30;5.70;;;;;;;2.59;85.86;100270.97;4870218;29;20053;-75
2022/12/13 06:18:34;;;;;;;9.65;6.35;;;;;;;2.68;85.07;100271.44;4881328;29;20080;-73
2022/12/13 06:21:05;;;;;;;13.75;7.13;;;;;;;2.77;86.88;100261.94;4868527;29;20049;-74
2022/12/13 06:23:34;;;;;;;11.95;6.75;;;;;;;2.77;85.63;100267.34;4859829;29;20046;-75
2022/12/13 06:26:07;;;;;;;13.23;6.95;;;;;;;2.71;86.27;100257.47;4876959;29;20045;-74
2022/12/13 06:28:35;;;;;;;12.52;7.38;;;;;;;2.58;85.66;100265.81;4859061;29;20049;-74
2022/12/13 06:31:03;;;;;;;15.57;7.65;;;;;;;2.62;86.39;100261.56;4866563;29;20396;-72
2022/12/13 06:33:37;;;;;;;12.15;7.65;;;;;;;2.70;85.44;100266.63;4866252;29;20049;-75
2022/12/13 06:36:09;;;;;;;10.85;6.55;;;;;;;2.72;86.24;100266.38;4870020;29;20511;-81
2022/12/13 06:38:36;;;;;;;13.95;7.75;;;;;;;2.63;86.60;100258.63;4870052;29;20064;-84
2022/12/13 06:41:12;;;;;;;11.60;6.30;;;;;;;2.67;85.49;100254.41;4865882;29;20057;-85
2022/12/13 06:43:42;;;;;;;10.02;6.03;;;;;;;2.66;87.02;100260.88;4859303;29;20409;-79
